Desert Aire, Washington
Current Conditions -  °F | °C
As of 12:56 PM on Thursday 23 Oct 2014 (Local Time) from K1YT Reporting Station
Broken Clouds Broken Clouds  
Wind Chill: 13°   Ceiling: 11000
Heat Index: 13°   Visibility: 10mi
Dew Point:   Wind: 6mph
Humidity: 77%   Direction: 320°NW
Pressure: 29.82"   Gusts: NA
Location:  46.6873°N, 119.887°W
Report Text: K1YT 231956Z AUTO 32005KT 10SM SCT041 SCT090 BKN110 13/09 A2982 RMK AO2 SLPNO T01300090
Loading
Personal Weather Stations






























Interactive Weather Map
Tropical Storm Tracking
New forecast layout! Learn more

10-Day Weather Forecast

Advertisements
Track Severe Weather on mobile